Salt Lake City, Utah
Traffic Map
Current Weather Conditions
Salt Lake City, Utah
Scattered Clouds
Scattered Clouds
77°
Feels Like: 78°
Wind Chill: 77° Ceiling: Unl
Heat Index: 78° Visibility: 10mi
Dew Point: 43° Wind: 8mph
Humidity: 29% Direction: 150° (SSE)
Pressure: 30.1in Gusts: 0mph
Raw Report DataKSLC 261354Z 15007KT 10SM FEW150 SCT200 25/06 A3010
Traffic Incident Summary
Active as of:
Severity:
Category:
InformationThere was an issue retrieving the traffic information for this location. Please try a different location or try again shortly.
Advertisements
Track Severe Weather on mobile